Time;durP1;ratioP1;P1;durP2;ratioP2;P2;SDS_P1;SDS_P2;PMS_P1;PMS_P2;Temp;Humidity;BMP_temperature;BMP_pressure;BME280_temperature;BME280_humidity;BME280_pressure;Samples;Min_cycle;Max_cycle;Signal;HPM_P1;HPM_P2
2021/07/19 00:00:28;;;;;;;7.37;3.77;;;15.50;99.90;;;;;;5058364;28;20175;-90
2021/07/19 00:02:54;;;;;;;9.60;3.53;;;15.40;99.90;;;;;;5058327;28;20185;-86
2021/07/19 00:05:22;;;;;;;10.37;4.53;;;15.40;99.90;;;;;;5058784;28;20239;-85
2021/07/19 00:07:48;;;;;;;8.23;3.80;;;15.40;99.90;;;;;;5075315;28;20255;-86
2021/07/19 00:10:15;;;;;;;7.70;3.40;;;15.40;99.90;;;;;;5075083;28;20478;-88
2021/07/19 00:12:41;;;;;;;13.23;3.30;;;15.40;99.90;;;;;;5075317;28;20537;-86
2021/07/19 00:15:11;;;;;;;10.87;3.00;;;15.60;99.90;;;;;;5057278;28;20432;-86
2021/07/19 00:17:36;;;;;;;10.13;3.10;;;15.70;99.90;;;;;;5074972;28;20419;-85
2021/07/19 00:20:04;;;;;;;9.97;3.40;;;15.80;99.90;;;;;;5055359;28;20527;-87
2021/07/19 00:22:30;;;;;;;9.13;3.77;;;15.90;99.90;;;;;;5057451;28;20184;-86
2021/07/19 00:24:56;;;;;;;9.83;3.37;;;16.00;99.90;;;;;;5074711;28;20423;-89
2021/07/19 00:27:21;;;;;;;11.70;3.93;;;16.10;99.90;;;;;;5075947;28;20602;-92
2021/07/19 00:29:47;;;;;;;12.43;3.33;;;16.10;97.30;;;;;;5057980;28;20224;-86
2021/07/19 00:32:13;;;;;;;13.90;3.63;;;16.20;99.90;;;;;;5057784;28;20241;-90
2021/07/19 00:34:38;;;;;;;10.57;3.67;;;16.20;98.20;;;;;;5057638;28;20177;-87
2021/07/19 00:37:04;;;;;;;7.90;3.37;;;16.30;91.40;;;;;;5074400;28;20293;-87
2021/07/19 00:39:30;;;;;;;6.67;2.40;;;16.30;91.70;;;;;;5056198;28;20176;-86
2021/07/19 00:41:56;;;;;;;12.07;3.40;;;16.30;69.90;;;;;;5056521;28;20922;-88
2021/07/19 00:44:22;;;;;;;5.87;3.00;;;16.30;71.40;;;;;;5074392;28;20426;-86
2021/07/19 00:46:49;;;;;;;7.47;3.57;;;16.40;70.30;;;;;;5056809;28;20174;-87
2021/07/19 00:49:16;;;;;;;8.97;2.87;;;16.40;38.50;;;;;;5073030;28;20474;-89
2021/07/19 00:51:42;;;;;;;11.33;3.70;;;16.30;79.70;;;;;;5074025;28;20420;-86
2021/07/19 00:54:11;;;;;;;9.27;3.13;;;16.40;63.30;;;;;;5072944;28;20435;-88
2021/07/19 00:56:38;;;;;;;11.27;3.70;;;16.40;27.20;;;;;;5073990;28;20416;-88
2021/07/19 00:59:06;;;;;;;9.83;4.20;;;16.40;30.20;;;;;;5056539;28;20473;-85
2021/07/19 01:01:33;;;;;;;9.00;3.13;;;16.40;53.60;;;;;;5056382;28;20447;-85
2021/07/19 01:04:01;;;;;;;8.10;2.47;;;16.40;44.10;;;;;;5074160;28;20412;-86
2021/07/19 01:06:32;;;;;;;13.20;2.90;;;16.40;60.20;;;;;;5056189;28;20435;-89
2021/07/19 01:08:58;;;;;;;7.57;3.20;;;16.40;52.10;;;;;;5055805;28;20456;-86
2021/07/19 01:11:25;;;;;;;7.50;3.13;;;16.30;72.30;;;;;;5073626;28;20451;-87
2021/07/19 01:13:50;;;;;;;8.77;2.70;;;16.30;66.50;;;;;;5074783;28;20408;-87
2021/07/19 01:16:16;;;;;;;7.10;3.60;;;16.30;63.10;;;;;;5074350;28;20496;-86
2021/07/19 01:18:44;;;;;;;7.90;3.13;;;16.30;81.70;;;;;;5055459;28;20175;-88
2021/07/19 01:21:21;;;;;;;9.37;3.17;;;16.30;95.40;;;;;;5074240;28;20776;-85
2021/07/19 01:24:15;;;;;;;7.83;2.70;;;16.30;99.90;;;;;;5071805;28;20479;-89
2021/07/19 01:27:05;;;;;;;8.90;3.37;;;16.40;95.40;;;;;;5056465;28;20798;-89
2021/07/19 01:29:33;;;;;;;7.80;2.80;;;16.30;90.20;;;;;;5055257;28;20475;-90
2021/07/19 01:31:59;;;;;;;10.00;3.90;;;16.40;88.30;;;;;;5056581;28;20416;-89
2021/07/19 01:34:27;;;;;;;7.43;2.60;;;16.30;97.40;;;;;;5056622;28;20418;-89
2021/07/19 01:36:56;;;;;;;8.90;3.17;;;16.40;78.50;;;;;;5074689;28;20416;-86
2021/07/19 01:39:24;;;;;;;8.40;2.30;;;16.30;98.70;;;;;;5055155;28;20426;-87
2021/07/19 01:41:52;;;;;;;7.33;3.30;;;16.30;84.10;;;;;;5056463;28;20420;-89
2021/07/19 01:44:19;;;;;;;8.87;3.00;;;16.40;81.50;;;;;;5056572;28;20428;-90
2021/07/19 01:46:46;;;;;;;14.30;3.23;;;16.30;55.00;;;;;;5056322;28;20420;-90
2021/07/19 01:49:13;;;;;;;6.73;2.63;;;16.40;67.60;;;;;;5073144;28;20998;-90
2021/07/19 01:51:40;;;;;;;10.80;3.10;;;16.40;47.60;;;;;;5055323;28;20424;-89
2021/07/19 01:54:05;;;;;;;8.90;2.47;;;16.30;42.90;;;;;;5074094;28;20403;-89
2021/07/19 01:56:32;;;;;;;7.50;2.80;;;16.30;57.10;;;;;;5054903;28;20425;-87
2021/07/19 01:58:59;;;;;;;7.07;2.80;;;16.30;66.40;;;;;;5056105;28;20413;-89
2021/07/19 02:01:26;;;;;;;6.27;2.80;;;16.30;22.90;;;;;;5056126;28;20781;-86
2021/07/19 02:03:52;;;;;;;10.87;2.73;;;16.30;26.10;;;;;;5056185;28;20455;-87
2021/07/19 02:06:18;;;;;;;7.97;3.30;;;16.30;19.20;;;;;;5056213;28;20444;-87
2021/07/19 02:08:48;;;;;;;7.93;3.00;;;16.40;25.10;;;;;;5056010;28;20466;-88
2021/07/19 02:11:17;;;;;;;10.37;2.83;;;16.40;63.50;;;;;;5055764;28;20424;-88
2021/07/19 02:13:44;;;;;;;7.30;3.20;;;16.40;43.60;;;;;;5055878;28;20427;-88
2021/07/19 02:16:11;;;;;;;8.57;2.43;;;16.30;42.80;;;;;;5056388;28;20857;-93
2021/07/19 02:18:41;;;;;;;8.00;3.03;;;16.30;22.20;;;;;;5055260;28;20430;-90
2021/07/19 02:21:07;;;;;;;7.27;3.00;;;16.30;68.60;;;;;;5055826;28;20439;-94
2021/07/19 02:23:34;;;;;;;9.30;2.77;;;16.30;16.20;;;;;;5056377;28;20424;-92
2021/07/19 02:26:03;;;;;;;10.13;3.50;;;16.30;22.40;;;;;;5055134;28;20434;-89
2021/07/19 02:28:29;;;;;;;5.90;2.63;;;16.30;40.40;;;;;;5057995;28;20470;-94
2021/07/19 02:30:56;;;;;;;10.30;3.60;;;16.30;56.90;;;;;;5071399;28;20425;-94
2021/07/19 02:33:23;;;;;;;5.50;2.57;;;16.20;45.50;;;;;;5047742;28;20557;-93
2021/07/19 02:35:51;;;;;;;6.23;2.67;;;16.30;39.10;;;;;;5085187;28;20428;-91
2021/07/19 02:38:18;;;;;;;4.10;2.50;;;16.30;49.00;;;;;;5070733;28;20416;-93
2021/07/19 02:40:46;;;;;;;8.93;3.47;;;16.30;34.10;;;;;;5051347;28;20480;-93
2021/07/19 02:43:12;;;;;;;6.33;2.10;;;16.20;33.00;;;;;;5074674;28;20443;-91
2021/07/19 02:46:05;;;;;;;7.60;2.17;;;16.30;20.30;;;;;;5093964;28;20472;-87
2021/07/19 02:48:36;;;;;;;5.43;2.43;;;16.30;1.00;;;;;;5070465;28;20424;-94
2021/07/19 02:51:04;;;;;;;13.63;3.40;;;16.30;1.40;;;;;;5067311;28;20439;-87
2021/07/19 02:53:30;;;;;;;5.67;2.17;;;16.20;23.40;;;;;;5067212;28;20463;-94
2021/07/19 02:55:58;;;;;;;10.90;2.50;;;16.20;13.80;;;;;;5084433;28;20919;-87
2021/07/19 02:58:24;;;;;;;12.77;2.87;;;16.30;15.90;;;;;;5034057;23;20863;-90
2021/07/19 03:00:50;;;;;;;8.30;2.70;;;16.20;10.70;;;;;;5084168;22;20484;-89
2021/07/19 03:03:22;;;;;;;8.27;3.17;;;16.20;1.00;;;;;;5076427;28;20184;-89
2021/07/19 03:05:53;;;;;;;8.77;2.80;;;16.20;1.00;;;;;;5091854;28;20442;-90
2021/07/19 03:08:20;;;;;;;7.23;3.60;;;16.20;1.00;;;;;;5089853;28;20408;-94
2021/07/19 03:10:51;;;;;;;11.63;2.70;;;16.30;6.50;;;;;;5075029;28;20427;-95
2021/07/19 03:13:23;;;;;;;5.00;2.30;;;16.30;1.00;;;;;;5068017;28;21000;-92
2021/07/19 03:15:50;;;;;;;11.37;3.00;;;16.30;34.20;;;;;;5044840;28;20423;-92
2021/07/19 03:18:18;;;;;;;6.13;2.70;;;16.20;1.00;;;;;;5060355;28;20431;-92
2021/07/19 03:20:44;;;;;;;6.90;3.20;;;16.20;1.00;;;;;;5077224;28;20511;-93
2021/07/19 03:23:13;;;;;;;6.27;3.50;;;16.30;1.00;;;;;;5076133;28;20969;-91
2021/07/19 03:25:40;;;;;;;6.60;2.93;;;16.30;1.00;;;;;;5075592;28;20523;-91
2021/07/19 03:28:06;;;;;;;6.20;3.10;;;16.40;1.00;;;;;;5094019;28;20472;-91
2021/07/19 03:30:33;;;;;;;8.93;3.10;;;16.30;1.00;;;;;;5077565;28;20462;-93
2021/07/19 03:33:00;;;;;;;7.17;3.73;;;16.30;1.00;;;;;;5079874;28;20415;-92
2021/07/19 03:35:28;;;;;;;7.13;2.97;;;16.30;1.00;;;;;;5079630;28;20410;-91
2021/07/19 03:37:54;;;;;;;8.07;3.70;;;16.30;1.00;;;;;;5079371;28;20419;-90
2021/07/19 03:40:22;;;;;;;9.40;3.87;;;16.30;1.00;;;;;;5079410;28;20402;-91
2021/07/19 03:42:49;;;;;;;8.73;4.20;;;16.30;1.00;;;;;;5079408;28;20428;-91
2021/07/19 03:45:16;;;;;;;6.20;3.40;;;16.30;1.00;;;;;;5079662;28;20460;-91
2021/07/19 03:47:46;;;;;;;8.37;4.23;;;16.30;1.00;;;;;;5079532;28;20827;-92
2021/07/19 03:50:13;;;;;;;9.30;3.70;;;16.30;1.00;;;;;;5097004;28;20523;-92
2021/07/19 03:52:40;;;;;;;8.37;3.50;;;16.30;1.00;;;;;;5097331;28;20407;-92
2021/07/19 03:55:07;;;;;;;8.43;3.40;;;16.30;1.00;;;;;;5097050;28;20425;-91
2021/07/19 03:57:37;;;;;;;8.17;3.67;;;16.30;1.00;;;;;;5097310;28;20498;-91
2021/07/19 04:00:19;;;;;;;6.37;3.13;;;16.30;1.00;;;;;;5079172;28;20503;-90
2021/07/19 04:02:50;;;;;;;8.07;3.90;;;16.30;1.00;;;;;;5078989;28;20466;-92
2021/07/19 04:05:18;;;;;;;6.80;3.90;;;16.30;1.00;;;;;;5097138;28;20949;-94
2021/07/19 04:07:46;;;;;;;6.97;3.53;;;16.30;1.00;;;;;;5079359;28;20616;-93
2021/07/19 04:10:18;;;;;;;7.20;3.30;;;16.40;1.00;;;;;;5096528;28;20462;-91
2021/07/19 04:12:46;;;;;;;8.50;4.40;;;16.30;1.00;;;;;;5079762;28;20908;-91
2021/07/19 04:15:14;;;;;;;8.43;4.20;;;16.40;1.00;;;;;;5078938;28;20588;-88
2021/07/19 04:17:40;;;;;;;5.40;3.03;;;16.40;1.00;;;;;;5096183;28;20441;-88
2021/07/19 04:20:09;;;;;;;10.77;4.20;;;16.40;1.00;;;;;;5096150;28;20412;-87
2021/07/19 04:22:34;;;;;;;10.70;4.17;;;16.40;1.00;;;;;;5077721;28;20452;-88
2021/07/19 04:25:04;;;;;;;11.90;4.50;;;16.40;3.20;;;;;;5095545;28;20435;-90
2021/07/19 04:27:32;;;;;;;7.00;4.50;;;16.30;1.00;;;;;;5078545;28;20236;-89
2021/07/19 04:29:57;;;;;;;9.43;4.73;;;16.40;1.00;;;;;;5097439;28;20470;-89
2021/07/19 04:32:23;;;;;;;9.40;3.90;;;16.40;1.00;;;;;;5079098;28;20883;-90
2021/07/19 04:34:49;;;;;;;6.43;4.00;;;16.50;1.00;;;;;;5106631;28;20157;-91
2021/07/19 04:37:15;;;;;;;6.43;4.13;;;16.50;14.40;;;;;;5100739;28;20178;-90
2021/07/19 04:39:42;;;;;;;9.27;4.00;;;16.50;1.00;;;;;;5120412;28;20175;-89
2021/07/19 04:42:08;;;;;;;11.60;6.07;;;16.50;1.00;;;;;;5113192;28;20419;-86
2021/07/19 04:44:35;;;;;;;7.80;4.43;;;16.60;1.00;;;;;;5119831;28;20395;-87
2021/07/19 04:47:01;;;;;;;5.80;4.33;;;16.60;1.00;;;;;;5120243;28;20423;-87
2021/07/19 04:49:27;;;;;;;8.90;5.93;;;16.60;1.00;;;;;;5120661;28;20454;-87
2021/07/19 04:51:53;;;;;;;5.20;3.50;;;16.60;1.00;;;;;;5107216;28;20413;-95
2021/07/19 04:54:25;;;;;;;6.90;3.70;;;16.60;1.00;;;;;;5096532;28;20226;-93
2021/07/19 04:56:54;;;;;;;9.03;4.93;;;16.60;1.00;;;;;;5078696;28;20408;-94
2021/07/19 04:59:21;;;;;;;7.70;4.00;;;16.60;1.00;;;;;;5096708;28;20405;-93
2021/07/19 05:01:50;;;;;;;7.73;3.67;;;16.60;1.00;;;;;;5096051;28;20500;-88
2021/07/19 05:04:21;;;;;;;6.43;3.60;;;16.70;1.00;;;;;;5078024;28;20417;-92
2021/07/19 05:06:50;;;;;;;5.73;3.97;;;16.70;1.00;;;;;;5078172;28;20423;-91
2021/07/19 05:09:17;;;;;;;5.20;4.03;;;16.70;1.00;;;;;;5077435;28;21075;-92
2021/07/19 05:11:43;;;;;;;6.23;4.00;;;16.60;1.00;;;;;;5095651;28;20425;-92
2021/07/19 05:14:09;;;;;;;8.03;4.13;;;16.70;1.00;;;;;;5095746;28;20415;-91
2021/07/19 05:16:36;;;;;;;5.13;3.40;;;16.70;1.00;;;;;;5095746;28;21117;-92
2021/07/19 05:19:03;;;;;;;6.97;4.60;;;16.70;1.00;;;;;;5077710;28;20426;-92
2021/07/19 05:21:36;;;;;;;5.23;3.57;;;16.80;1.00;;;;;;5077510;28;20419;-90
2021/07/19 05:24:02;;;;;;;4.93;2.93;;;16.80;1.00;;;;;;5077111;28;20424;-92
2021/07/19 05:26:28;;;;;;;8.93;3.90;;;16.80;1.00;;;;;;5078505;28;20431;-91
2021/07/19 05:28:56;;;;;;;4.33;3.07;;;16.80;1.00;;;;;;5077542;28;20458;-87
2021/07/19 05:31:25;;;;;;;7.07;3.83;;;16.70;1.00;;;;;;5095714;28;20412;-92
2021/07/19 05:33:51;;;;;;;8.77;4.20;;;16.80;1.00;;;;;;5077322;28;20412;-93
2021/07/19 05:36:16;;;;;;;9.07;4.70;;;16.80;1.00;;;;;;5077225;28;20788;-92
2021/07/19 05:38:42;;;;;;;6.50;3.80;;;16.80;1.00;;;;;;5077298;28;20427;-93
2021/07/19 05:41:11;;;;;;;8.50;3.93;;;16.90;1.00;;;;;;5077305;28;20209;-91
2021/07/19 05:43:38;;;;;;;6.50;4.20;;;16.90;1.00;;;;;;5077104;28;20185;-93
2021/07/19 05:46:04;;;;;;;9.03;4.40;;;16.90;1.00;;;;;;5077297;28;20404;-92
2021/07/19 05:48:29;;;;;;;7.43;4.53;;;16.90;1.00;;;;;;5095766;28;20432;-93
2021/07/19 05:50:57;;;;;;;6.47;3.87;;;16.80;1.00;;;;;;5095397;28;20425;-93
2021/07/19 05:53:22;;;;;;;8.20;4.63;;;16.70;1.00;;;;;;5110225;28;20151;-94
2021/07/19 05:55:49;;;;;;;7.03;3.60;;;16.70;1.00;;;;;;5096114;28;20483;-91
2021/07/19 05:58:15;;;;;;;5.70;4.60;;;16.80;1.00;;;;;;5088569;28;20588;-95
2021/07/19 06:00:42;;;;;;;7.80;3.67;;;16.80;32.50;;;;;;5104112;28;20416;-94
2021/07/19 06:03:08;;;;;;;5.63;4.60;;;16.80;1.00;;;;;;5111781;28;20408;-88
2021/07/19 06:05:36;;;;;;;6.83;4.87;;;16.90;1.00;;;;;;5092649;28;20449;-94
2021/07/19 06:08:01;;;;;;;7.10;4.20;;;17.00;1.00;;;;;;5117956;28;20431;-93
2021/07/19 06:10:27;;;;;;;6.47;3.67;;;17.10;1.00;;;;;;5114889;28;20461;-94
2021/07/19 06:12:53;;;;;;;9.60;4.67;;;17.30;1.00;;;;;;5113951;28;20156;-88
2021/07/19 06:15:20;;;;;;;7.07;4.60;;;17.50;1.00;;;;;;5095308;28;20198;-93
2021/07/19 06:17:45;;;;;;;7.83;4.90;;;17.50;1.00;;;;;;5112196;28;20234;-91
2021/07/19 06:20:19;;;;;;;6.73;4.60;;;17.60;1.00;;;;;;5095526;28;20439;-93
2021/07/19 06:23:20;;;;;;;9.73;4.47;;;17.60;1.00;;;;;;5112803;28;20265;-90
2021/07/19 06:25:45;;;;;;;8.63;4.83;;;17.70;1.00;;;;;;5127248;28;20445;-88
2021/07/19 06:28:11;;;;;;;5.80;4.33;;;17.80;1.00;;;;;;5100512;28;20419;-90
2021/07/19 06:30:37;;;;;;;6.40;3.93;;;17.90;1.00;;;;;;5106114;28;20215;-89
2021/07/19 06:33:03;;;;;;;5.73;4.23;;;17.90;1.00;;;;;;5105804;28;20178;-92
2021/07/19 06:35:29;;;;;;;9.40;3.93;;;17.80;1.00;;;;;;5096231;28;20520;-94
2021/07/19 06:37:55;;;;;;;8.57;4.50;;;17.90;1.00;;;;;;5110011;28;20431;-93
2021/07/19 06:40:21;;;;;;;6.87;3.90;;;17.90;1.00;;;;;;5118746;28;20180;-93
2021/07/19 06:42:47;;;;;;;7.90;4.20;;;17.80;1.00;;;;;;5110934;28;20407;-93
2021/07/19 06:45:13;;;;;;;8.93;4.20;;;17.70;1.00;;;;;;5091211;28;20408;-94
2021/07/19 06:47:40;;;;;;;6.83;5.10;;;17.80;1.00;;;;;;5103493;28;20170;-92
2021/07/19 06:50:11;;;;;;;7.03;4.47;;;17.80;1.00;;;;;;5110079;28;20830;-92
2021/07/19 06:52:37;;;;;;;7.83;4.77;;;17.80;1.00;;;;;;5099222;28;20424;-93
2021/07/19 06:55:05;;;;;;;6.57;4.00;;;17.90;1.00;;;;;;5107187;28;20432;-94
2021/07/19 06:57:30;;;;;;;5.30;3.63;;;18.00;1.00;;;;;;5085506;28;20436;-95
2021/07/19 06:59:56;;;;;;;5.10;4.27;;;18.30;99.90;;;;;;5091756;28;20472;-92
2021/07/19 07:02:22;;;;;;;5.33;4.07;;;18.30;1.00;;;;;;5086823;28;20218;-93
2021/07/19 07:04:47;;;;;;;8.00;4.13;;;18.40;99.90;;;;;;5091181;28;20177;-92
2021/07/19 07:07:13;;;;;;;7.93;4.87;;;18.40;99.90;;;;;;5105447;28;20225;-94
2021/07/19 07:09:38;;;;;;;5.87;3.80;;;18.60;99.90;;;;;;5089789;28;20286;-94
2021/07/19 07:12:04;;;;;;;6.73;4.00;;;18.80;99.90;;;;;;5086839;28;20170;-93
2021/07/19 07:14:30;;;;;;;9.93;4.43;;;18.90;99.90;;;;;;5088573;28;20190;-93
2021/07/19 07:16:56;;;;;;;5.50;4.20;;;18.90;25.10;;;;;;5089764;28;20206;-93
2021/07/19 07:19:23;;;;;;;5.37;4.00;;;18.90;99.90;;;;;;5084456;28;20554;-90
2021/07/19 07:21:49;;;;;;;5.90;3.43;;;19.00;99.90;;;;;;5098443;28;20401;-92
2021/07/19 07:24:15;;;;;;;5.23;3.80;;;19.00;19.10;;;;;;5103247;28;20417;-95
2021/07/19 07:26:41;;;;;;;8.17;4.80;;;19.10;1.00;;;;;;5102607;28;20442;-93
2021/07/19 07:29:06;;;;;;;6.77;4.30;;;19.00;1.00;;;;;;5100740;22;20303;-88
2021/07/19 07:31:41;;;;;;;5.23;3.70;;;18.90;99.90;;;;;;5081856;22;20208;-92
2021/07/19 07:34:07;;;;;;;8.57;3.70;;;18.90;99.90;;;;;;5043160;28;1124907;-90
2021/07/19 07:36:34;;;;;;;5.30;3.77;;;19.10;99.90;;;;;;5091482;22;20230;-92
2021/07/19 07:39:01;;;;;;;4.03;3.50;;;19.50;99.90;;;;;;5100647;28;20156;-95
2021/07/19 07:41:29;;;;;;;5.33;3.60;;;19.60;99.90;;;;;;5101006;28;20425;-89
2021/07/19 07:43:55;;;;;;;7.10;3.70;;;19.70;1.00;;;;;;5100015;28;20444;-90
2021/07/19 07:46:21;;;;;;;5.97;2.93;;;19.80;99.90;;;;;;5098068;28;20403;-91
2021/07/19 07:48:46;;;;;;;5.10;3.33;;;20.00;1.00;;;;;;5094848;28;20459;-89
2021/07/19 07:51:19;;;;;;;5.70;2.83;;;20.10;1.00;;;;;;5096091;22;20291;-89
2021/07/19 07:53:45;;;;;;;6.47;3.80;;;19.80;99.90;;;;;;5086586;28;20176;-89
2021/07/19 07:56:11;;;;;;;5.37;3.07;;;20.00;1.00;;;;;;5078812;28;20422;-90
2021/07/19 07:58:36;;;;;;;4.83;2.97;;;19.90;99.90;;;;;;5076969;28;20169;-91
2021/07/19 08:01:02;;;;;;;6.17;3.63;;;19.90;1.00;;;;;;5076883;28;20177;-90
2021/07/19 08:03:28;;;;;;;4.90;2.50;;;20.00;1.00;;;;;;5076269;28;20184;-90
2021/07/19 08:05:53;;;;;;;6.27;3.00;;;19.80;49.60;;;;;;5076575;28;20419;-91
2021/07/19 08:08:19;;;;;;;4.17;3.03;;;19.40;1.00;;;;;;5074605;28;20271;-87
2021/07/19 08:10:45;;;;;;;3.07;2.77;;;19.10;1.00;;;;;;5075661;28;20703;-89
2021/07/19 08:13:10;;;;;;;3.73;3.20;;;19.20;99.90;;;;;;5071079;28;20191;-89
2021/07/19 08:15:37;;;;;;;8.10;3.53;;;19.50;1.00;;;;;;5069452;28;20272;-85
2021/07/19 08:18:03;;;;;;;5.60;2.80;;;19.70;1.00;;;;;;5069908;28;20167;-83
2021/07/19 08:20:29;;;;;;;3.40;2.67;;;19.90;99.90;;;;;;5078407;28;20442;-88
2021/07/19 08:22:55;;;;;;;4.70;2.70;;;20.90;1.00;;;;;;5075129;28;20425;-87
2021/07/19 08:25:20;;;;;;;6.20;3.60;;;20.60;99.90;;;;;;5080841;28;20174;-89
2021/07/19 08:27:47;;;;;;;5.70;3.00;;;20.30;1.00;;;;;;5077639;28;20413;-86
2021/07/19 08:30:14;;;;;;;5.27;2.87;;;20.00;1.00;;;;;;5078198;28;20283;-92
2021/07/19 08:32:40;;;;;;;4.23;2.80;;;20.00;1.00;;;;;;5079284;28;20782;-88
2021/07/19 08:35:11;;;;;;;4.50;2.93;;;20.20;40.50;;;;;;5078089;28;20427;-90
2021/07/19 08:37:38;;;;;;;6.03;2.20;;;19.90;17.90;;;;;;5076253;28;20582;-87
2021/07/19 08:40:05;;;;;;;3.50;2.57;;;19.80;99.90;;;;;;5075551;28;20518;-86
2021/07/19 08:42:34;;;;;;;3.67;2.10;;;19.80;1.00;;;;;;5079043;28;20892;-88
2021/07/19 08:45:01;;;;;;;5.00;2.63;;;19.60;1.00;;;;;;5080775;28;20438;-87
2021/07/19 08:47:27;;;;;;;2.30;1.93;;;19.50;1.00;;;;;;5080137;28;20424;-88
2021/07/19 08:49:52;;;;;;;3.53;2.13;;;19.30;1.00;;;;;;5080658;28;20477;-91
2021/07/19 08:52:21;;;;;;;6.47;2.33;;;19.30;1.00;;;;;;5098758;28;20573;-87
2021/07/19 08:54:47;;;;;;;3.87;2.20;;;19.20;1.00;;;;;;5081210;28;20603;-91
2021/07/19 08:57:15;;;;;;;3.30;2.10;;;19.20;99.90;;;;;;5105492;28;20435;-93
2021/07/19 08:59:43;;;;;;;6.33;2.23;;;19.20;1.00;;;;;;5107900;28;20416;-91
2021/07/19 09:02:10;;;;;;;4.40;2.70;;;19.30;1.30;;;;;;5084805;28;20442;-94
2021/07/19 09:04:37;;;;;;;2.30;2.07;;;19.90;99.90;;;;;;5100687;28;20417;-88
2021/07/19 09:07:06;;;;;;;4.70;2.33;;;20.70;1.00;;;;;;5084597;28;20482;-87
2021/07/19 09:09:35;;;;;;;5.10;1.80;;;21.20;99.90;;;;;;5072983;28;20500;-86
2021/07/19 09:12:04;;;;;;;5.40;1.63;;;21.70;14.20;;;;;;5076962;28;20491;-89
2021/07/19 09:14:31;;;;;;;2.67;1.73;;;21.70;1.00;;;;;;5082728;28;20787;-91
2021/07/19 09:16:57;;;;;;;3.13;1.97;;;21.90;1.00;;;;;;5076250;28;20418;-88
2021/07/19 09:19:27;;;;;;;3.93;1.63;;;21.90;99.90;;;;;;5097439;28;20461;-91
2021/07/19 09:21:57;;;;;;;4.00;1.60;;;21.60;1.00;;;;;;5077293;28;20558;-88
2021/07/19 09:24:25;;;;;;;1.47;1.00;;;21.60;1.00;;;;;;5073799;28;20429;-89
2021/07/19 09:26:52;;;;;;;3.77;1.20;;;21.70;1.00;;;;;;5075423;28;20417;-91
2021/07/19 09:29:20;;;;;;;4.23;1.50;;;21.20;1.00;;;;;;5076313;28;20456;-92
2021/07/19 09:31:54;;;;;;;3.27;2.10;;;21.10;99.90;;;;;;5094420;28;20778;-89
2021/07/19 09:34:23;;;;;;;3.70;1.47;;;21.20;99.90;;;;;;5079621;28;20423;-87
2021/07/19 09:37:02;;;;;;;4.80;1.23;;;21.30;12.40;;;;;;5094052;28;20437;-92
2021/07/19 09:39:31;;;;;;;5.70;1.07;;;21.20;1.00;;;;;;5071039;28;20948;-89
2021/07/19 09:42:20;;;;;;;2.10;1.10;;;21.50;99.90;;;;;;5095265;28;20420;-90
2021/07/19 09:44:55;;;;;;;4.07;1.03;;;21.60;99.90;;;;;;5077987;28;20482;-91
2021/07/19 09:47:31;;;;;;;4.43;1.33;;;21.60;1.00;;;;;;5078748;28;20472;-93
2021/07/19 09:49:59;;;;;;;5.20;1.97;;;21.20;1.00;;;;;;5093418;28;20503;-93
2021/07/19 09:52:33;;;;;;;4.00;1.77;;;21.20;1.00;;;;;;5079784;28;20440;-92
2021/07/19 09:54:58;;;;;;;4.90;2.30;;;21.20;1.00;;;;;;5095104;28;20420;-90
2021/07/19 09:57:24;;;;;;;2.87;2.00;;;21.20;1.00;;;;;;5080227;28;20403;-91
2021/07/19 09:59:56;;;;;;;4.13;1.40;;;21.00;1.00;;;;;;5077043;28;20542;-89
2021/07/19 10:02:38;;;;;;;2.30;1.67;;;20.90;1.00;;;;;;5077164;28;20182;-89
2021/07/19 10:05:22;;;;;;;4.40;1.27;;;20.70;1.00;;;;;;5076203;28;20497;-91
2021/07/19 10:07:48;;;;;;;2.50;0.97;;;20.70;99.90;;;;;;5074588;28;20545;-89
2021/07/19 10:10:15;;;;;;;2.10;1.30;;;20.40;1.00;;;;;;5073215;28;20557;-88
2021/07/19 10:12:41;;;;;;;3.63;1.03;;;20.40;1.00;;;;;;5093929;28;20169;-89
2021/07/19 10:15:09;;;;;;;4.10;1.43;;;20.50;99.90;;;;;;5086815;28;20422;-90
2021/07/19 10:17:34;;;;;;;3.77;1.67;;;20.50;99.90;;;;;;5077882;28;20445;-90
2021/07/19 10:20:00;;;;;;;4.53;2.40;;;20.50;43.40;;;;;;5093442;28;20465;-90
2021/07/19 10:22:26;;;;;;;4.70;1.20;;;20.50;53.70;;;;;;5076375;28;20173;-91
2021/07/19 10:25:01;;;;;;;3.43;1.50;;;20.60;99.90;;;;;;5076842;28;20426;-91
2021/07/19 10:27:28;;;;;;;2.30;1.00;;;20.60;1.00;;;;;;5078036;28;20172;-91
2021/07/19 10:29:55;;;;;;;3.63;1.50;;;20.50;72.60;;;;;;5077857;28;20594;-89
2021/07/19 10:32:23;;;;;;;3.17;1.50;;;20.70;99.90;;;;;;5077135;28;20423;-92
2021/07/19 10:34:54;;;;;;;2.53;1.80;;;21.10;99.90;;;;;;5077969;28;20415;-92
2021/07/19 10:37:29;;;;;;;4.33;2.10;;;21.10;99.90;;;;;;5082968;28;21009;-92
2021/07/19 10:39:57;;;;;;;9.50;3.30;;;21.20;99.90;;;;;;5066324;28;20942;-92
2021/07/19 10:42:34;;;;;;;3.10;1.50;;;21.40;1.00;;;;;;5062874;28;20473;-95
2021/07/19 10:45:14;;;;;;;3.17;2.20;;;21.30;99.90;;;;;;5068825;28;20510;-92
2021/07/19 10:47:52;;;;;;;3.13;1.47;;;21.30;70.80;;;;;;5097205;28;20439;-89
2021/07/19 10:50:30;;;;;;;3.90;1.70;;;21.20;67.40;;;;;;5095831;28;21039;-92
2021/07/19 10:52:59;;;;;;;3.67;1.83;;;20.90;99.90;;;;;;5079990;28;20506;-90
2021/07/19 10:55:30;;;;;;;3.77;1.57;;;20.90;1.00;;;;;;5079055;28;20426;-93
2021/07/19 10:58:01;;;;;;;1.93;1.03;;;21.00;1.00;;;;;;5079630;28;20420;-91
2021/07/19 11:00:27;;;;;;;1.90;1.37;;;21.00;1.00;;;;;;5095525;28;20413;-94
2021/07/19 11:03:07;;;;;;;8.73;1.77;;;20.80;99.90;;;;;;5075847;28;20419;-90
2021/07/19 11:05:38;;;;;;;2.00;1.23;;;20.80;99.90;;;;;;5078601;28;20415;-91
2021/07/19 11:08:25;;;;;;;4.70;1.53;;;20.70;99.90;;;;;;5072962;28;20483;-87
2021/07/19 11:10:54;;;;;;;6.17;2.33;;;20.70;1.00;;;;;;5092940;28;20455;-89
2021/07/19 11:13:33;;;;;;;6.00;1.53;;;21.00;1.00;;;;;;5072291;28;20417;-89
2021/07/19 11:16:12;;;;;;;2.13;1.93;;;21.20;99.90;;;;;;5072836;28;20424;-88
2021/07/19 11:18:37;;;;;;;2.70;1.60;;;21.00;99.90;;;;;;5070402;28;20445;-87
2021/07/19 11:21:04;;;;;;;4.53;2.10;;;21.20;99.90;;;;;;5092333;28;20458;-87
2021/07/19 11:23:31;;;;;;;2.70;1.77;;;21.30;99.90;;;;;;5095119;28;20176;-88
2021/07/19 11:25:58;;;;;;;7.37;2.60;;;21.50;99.90;;;;;;5075716;28;20417;-90
2021/07/19 11:28:25;;;;;;;3.37;1.80;;;21.80;99.90;;;;;;5094957;28;20749;-89
2021/07/19 11:31:04;;;;;;;6.50;2.10;;;22.00;99.90;;;;;;5080432;28;20471;-91
2021/07/19 11:33:43;;;;;;;4.73;1.80;;;22.40;99.90;;;;;;5097254;28;20425;-90
2021/07/19 11:36:33;;;;;;;3.60;1.80;;;22.80;13.60;;;;;;5079178;28;20512;-91
2021/07/19 11:39:02;;;;;;;3.17;1.23;;;23.00;32.00;;;;;;5066860;28;20420;-94
2021/07/19 11:41:38;;;;;;;4.43;1.83;;;22.40;1.00;;;;;;5073663;28;20433;-93
2021/07/19 11:47:06;;;;;;;5.80;1.80;;;21.50;99.90;;;;;;5111547;22;20483;-93
2021/07/19 11:49:32;;;;;;;6.13;2.00;;;21.10;99.90;;;;;;5067576;28;20476;-92
2021/07/19 11:51:58;;;;;;;3.40;1.83;;;20.80;99.90;;;;;;5062324;28;20419;-92
2021/07/19 11:54:33;;;;;;;2.27;2.00;;;20.60;99.90;;;;;;5068261;28;20456;-90
2021/07/19 11:57:00;;;;;;;4.20;1.60;;;20.70;99.90;;;;;;5090494;28;20411;-92
2021/07/19 11:59:27;;;;;;;3.43;2.20;;;20.80;99.00;;;;;;5090306;28;20412;-92
2021/07/19 12:02:02;;;;;;;4.17;1.87;;;20.60;99.90;;;;;;5060214;28;20420;-92
2021/07/19 12:04:40;;;;;;;4.30;1.60;;;20.50;1.00;;;;;;5073907;28;20902;-90
2021/07/19 12:07:07;;;;;;;3.20;1.87;;;20.50;1.00;;;;;;5060684;28;20419;-90
2021/07/19 12:09:33;;;;;;;2.40;1.60;;;20.40;1.00;;;;;;5089062;28;20463;-90
2021/07/19 12:12:01;;;;;;;6.87;2.10;;;20.60;16.40;;;;;;5081169;28;20423;-93
2021/07/19 12:14:27;;;;;;;3.63;1.97;;;20.30;99.90;;;;;;5078416;28;20434;-87
2021/07/19 12:16:53;;;;;;;5.97;2.20;;;20.20;99.90;;;;;;5078819;28;20449;-94
2021/07/19 12:19:20;;;;;;;4.73;1.93;;;20.10;8.30;;;;;;5088441;28;20415;-87
2021/07/19 12:21:46;;;;;;;6.80;1.83;;;20.10;99.90;;;;;;5100024;28;20229;-93
2021/07/19 12:24:13;;;;;;;6.97;1.70;;;20.00;1.00;;;;;;5091195;28;20420;-90
2021/07/19 12:26:47;;;;;;;4.27;1.73;;;20.00;99.90;;;;;;5077222;28;20168;-92
2021/07/19 12:29:23;;;;;;;4.27;1.30;;;20.10;99.90;;;;;;5062812;28;20462;-89
2021/07/19 12:31:52;;;;;;;2.13;1.73;;;20.40;1.00;;;;;;5086945;28;20422;-93
2021/07/19 12:34:30;;;;;;;7.83;2.40;;;20.70;1.00;;;;;;5078437;28;20427;-92
2021/07/19 12:37:07;;;;;;;4.30;1.77;;;20.70;1.00;;;;;;5099256;28;20418;-91
2021/07/19 12:39:35;;;;;;;2.90;1.70;;;21.20;99.90;;;;;;5074059;28;20422;-86
2021/07/19 12:42:10;;;;;;;5.30;2.20;;;21.40;1.00;;;;;;5066020;28;20451;-89
2021/07/19 12:44:36;;;;;;;3.07;2.07;;;21.80;99.90;;;;;;5085541;28;20423;-90
2021/07/19 12:47:03;;;;;;;3.73;0.77;;;22.00;99.90;;;;;;5082401;28;20465;-86
2021/07/19 12:49:34;;;;;;;4.63;1.30;;;21.70;99.90;;;;;;5069014;28;20476;-89
2021/07/19 12:52:14;;;;;;;4.27;1.83;;;21.60;1.00;;;;;;5072809;28;20555;-88
2021/07/19 12:54:40;;;;;;;4.07;1.93;;;21.80;99.90;;;;;;5071806;28;20436;-91
2021/07/19 12:57:06;;;;;;;3.73;1.60;;;21.80;99.90;;;;;;5071199;28;20504;-88
2021/07/19 12:59:32;;;;;;;2.97;1.33;;;21.80;99.90;;;;;;5064465;28;20464;-90